Eighty Four, PA

12:21 AM EDT on October 25, 2014 (GMT -0400)
Allegheny County | Change Station
CLOSE
Current Station
Airport
Location: Pittsburgh Allegheny Co.,
Elevation: 1253 ft
Nearby Weather Stations

Elev 1253 ft 40.35 °N, 79.92 °W | Updated 28 minutes ago

Clear
Clear
48 °F
Feels Like 48 °F
N
7
Wind Variable Wind from South

Today
High -- | Low -- °F
--% Chance of Precip.
Yesterday
High -- | Low -- °F
Precip. -- in
7:41 AM 6:26 PM
New Moon, 2% visible
Pressure 30.03 in
Visibility 10.0 miles
Clouds Few 4000 ft
Overcast 5000 ft
Dew Point 37 °F
Humidity 66%
Rainfall 0.00 in
Snow Depth Not available.
UV 0 out of 12
Pollen .70 out of 12
Ozone Good
PM2.5 Moderate
Flu Activity Sporadic
METAR KAGC 250353Z 18006KT 10SM FEW040 OVC050 09/03 A3001 RMK AO2 SLP169 T00890028

More Conditions Fewer Conditions

Pressure 30.03 in
Visibility 10.0 miles
Clouds Few 4000 ft
Overcast 5000 ft
Dew Point 37 °F
Humidity 66%
Rainfall 0.00 in
Snow Depth Not available.
UV 0 out of 12
Pollen .70 out of 12
Ozone Good
PM2.5 Moderate
Flu Activity Sporadic
METAR KAGC 250353Z 18006KT 10SM FEW040 OVC050 09/03 A3001 RMK AO2 SLP169 T00890028

More Conditions Fewer Conditions

10-Day Weather Forecast

Almanac

Astronomy

Oct. 25, 2014 Rise Set
Actual Time 7:41 AM EDT 6:26 PM EDT
Civil Twilight 7:14 AM EDT 6:54 PM EDT
Nautical Twilight 6:42 AM EDT 7:25 PM EDT
Astronomical Twilight 6:10 AM EDT 7:57 PM EDT
Moon 9:19 AM EDT 7:48 PM EDT
Length of Visible Light 11h 40m
Length of Day
10h 44m
Tomorrow will be 2m 27s shorter.
New Moon, 2% of the Moon is Illuminated
Today
New Moon
Oct 30
First Quarter
Nov 6
Full
Nov 14
Last Quarter
Nov 22
New

Today's Extremes

State Highs State Lows

Community

WunderPhotos

Upload Photos

1,764,781 photos uploaded!

Nearby

Air Quality

  Air Quality AQ Index Pollutant
Yesterday Good
PM2.5
Yesterday Good
OZONE
Current Moderate
PM2.5
Current Good
OZONE

Snow Depth

Station Depth Elevation
No new snow has been reported.

Earthquake Activity

City Distance Mag. Time & Date
No recent earthquake activity has been reported nearby.
Minimum magnitude displayed is 2.5.

Coastal Water Temperatures

Place Temperature
No Stations Reporting

Nearby Weather Stations